sensor_id;sensor_type;location;lat;lon;timestamp;P1;durP1;ratioP1;P2;durP2;ratioP2
72085;SDS011;64750;52.134;5.424;2023-02-15T00:01:32;30.05;;;17.33;;
72085;SDS011;64750;52.134;5.424;2023-02-15T00:04:00;25.83;;;16.67;;
72085;SDS011;64750;52.134;5.424;2023-02-15T00:06:26;26.75;;;16.73;;
72085;SDS011;64750;52.134;5.424;2023-02-15T00:08:53;22.67;;;16.17;;
72085;SDS011;64750;52.134;5.424;2023-02-15T00:11:21;28.73;;;16.33;;
72085;SDS011;64750;52.134;5.424;2023-02-15T00:14:07;28.23;;;17.42;;
72085;SDS011;64750;52.134;5.424;2023-02-15T00:16:42;22.67;;;16.48;;
72085;SDS011;64750;52.134;5.424;2023-02-15T00:19:10;25.95;;;17.30;;
72085;SDS011;64750;52.134;5.424;2023-02-15T00:21:38;24.77;;;17.03;;
72085;SDS011;64750;52.134;5.424;2023-02-15T00:24:06;27.25;;;16.67;;
72085;SDS011;64750;52.134;5.424;2023-02-15T00:26:34;30.83;;;18.30;;
72085;SDS011;64750;52.134;5.424;2023-02-15T00:29:02;32.35;;;17.90;;
72085;SDS011;64750;52.134;5.424;2023-02-15T00:31:29;28.98;;;17.63;;
72085;SDS011;64750;52.134;5.424;2023-02-15T00:34:07;34.17;;;17.30;;
72085;SDS011;64750;52.134;5.424;2023-02-15T00:36:38;32.65;;;17.52;;
72085;SDS011;64750;52.134;5.424;2023-02-15T00:39:05;29.15;;;18.00;;
72085;SDS011;64750;52.134;5.424;2023-02-15T00:41:32;25.45;;;16.75;;
72085;SDS011;64750;52.134;5.424;2023-02-15T00:43:59;28.02;;;17.10;;
72085;SDS011;64750;52.134;5.424;2023-02-15T00:46:26;30.77;;;16.93;;
72085;SDS011;64750;52.134;5.424;2023-02-15T00:48:52;29.85;;;16.65;;
72085;SDS011;64750;52.134;5.424;2023-02-15T00:51:19;25.27;;;16.67;;
72085;SDS011;64750;52.134;5.424;2023-02-15T00:53:46;23.20;;;15.07;;
72085;SDS011;64750;52.134;5.424;2023-02-15T00:56:13;26.30;;;15.88;;
72085;SDS011;64750;52.134;5.424;2023-02-15T00:58:39;25.10;;;15.30;;
72085;SDS011;64750;52.134;5.424;2023-02-15T01:01:08;22.70;;;14.80;;
72085;SDS011;64750;52.134;5.424;2023-02-15T01:03:39;29.67;;;16.98;;
72085;SDS011;64750;52.134;5.424;2023-02-15T01:06:07;29.40;;;15.85;;
72085;SDS011;64750;52.134;5.424;2023-02-15T01:08:34;25.98;;;16.08;;
72085;SDS011;64750;52.134;5.424;2023-02-15T01:11:05;21.63;;;15.57;;
72085;SDS011;64750;52.134;5.424;2023-02-15T01:13:33;25.13;;;15.52;;
72085;SDS011;64750;52.134;5.424;2023-02-15T01:16:00;29.95;;;14.93;;
72085;SDS011;64750;52.134;5.424;2023-02-15T01:18:27;26.50;;;15.15;;
72085;SDS011;64750;52.134;5.424;2023-02-15T01:20:54;25.85;;;15.15;;
72085;SDS011;64750;52.134;5.424;2023-02-15T01:23:20;22.70;;;14.37;;
72085;SDS011;64750;52.134;5.424;2023-02-15T01:25:47;21.27;;;13.90;;
72085;SDS011;64750;52.134;5.424;2023-02-15T01:28:13;21.63;;;14.15;;
72085;SDS011;64750;52.134;5.424;2023-02-15T01:30:40;23.23;;;14.60;;
72085;SDS011;64750;52.134;5.424;2023-02-15T01:33:06;23.67;;;14.48;;
72085;SDS011;64750;52.134;5.424;2023-02-15T01:35:33;20.27;;;14.17;;
72085;SDS011;64750;52.134;5.424;2023-02-15T01:37:59;20.83;;;13.70;;
72085;SDS011;64750;52.134;5.424;2023-02-15T01:40:25;23.48;;;14.15;;
72085;SDS011;64750;52.134;5.424;2023-02-15T01:42:52;18.33;;;13.55;;
72085;SDS011;64750;52.134;5.424;2023-02-15T01:45:39;19.85;;;14.80;;
72085;SDS011;64750;52.134;5.424;2023-02-15T01:48:16;19.97;;;14.90;;
72085;SDS011;64750;52.134;5.424;2023-02-15T01:50:52;22.30;;;14.90;;
72085;SDS011;64750;52.134;5.424;2023-02-15T01:56:15;18.48;;;13.30;;
72085;SDS011;64750;52.134;5.424;2023-02-15T01:58:48;20.40;;;13.20;;
72085;SDS011;64750;52.134;5.424;2023-02-15T02:01:16;22.47;;;12.93;;
72085;SDS011;64750;52.134;5.424;2023-02-15T02:06:14;24.65;;;12.93;;
72085;SDS011;64750;52.134;5.424;2023-02-15T02:08:41;23.02;;;13.05;;
72085;SDS011;64750;52.134;5.424;2023-02-15T02:11:12;20.67;;;13.38;;
72085;SDS011;64750;52.134;5.424;2023-02-15T02:13:40;20.03;;;13.43;;
72085;SDS011;64750;52.134;5.424;2023-02-15T02:16:13;23.90;;;13.07;;
72085;SDS011;64750;52.134;5.424;2023-02-15T02:30:40;20.88;;;12.25;;
72085;SDS011;64750;52.134;5.424;2023-02-15T02:39:00;22.45;;;13.32;;
72085;SDS011;64750;52.134;5.424;2023-02-15T02:41:36;22.40;;;12.97;;
72085;SDS011;64750;52.134;5.424;2023-02-15T02:44:22;22.67;;;12.88;;
72085;SDS011;64750;52.134;5.424;2023-02-15T02:46:52;19.83;;;12.57;;
72085;SDS011;64750;52.134;5.424;2023-02-15T02:49:29;22.02;;;13.57;;
72085;SDS011;64750;52.134;5.424;2023-02-15T02:52:01;17.70;;;12.80;;
72085;SDS011;64750;52.134;5.424;2023-02-15T02:54:29;20.93;;;12.60;;
72085;SDS011;64750;52.134;5.424;2023-02-15T02:56:58;22.60;;;13.23;;
72085;SDS011;64750;52.134;5.424;2023-02-15T02:59:31;22.63;;;12.50;;
72085;SDS011;64750;52.134;5.424;2023-02-15T03:02:13;18.60;;;13.27;;
72085;SDS011;64750;52.134;5.424;2023-02-15T03:04:54;17.75;;;12.07;;
72085;SDS011;64750;52.134;5.424;2023-02-15T03:07:29;20.10;;;12.87;;
72085;SDS011;64750;52.134;5.424;2023-02-15T03:09:58;22.70;;;12.75;;
72085;SDS011;64750;52.134;5.424;2023-02-15T03:12:34;21.77;;;12.98;;
72085;SDS011;64750;52.134;5.424;2023-02-15T03:15:04;18.17;;;12.98;;
72085;SDS011;64750;52.134;5.424;2023-02-15T03:17:35;20.13;;;14.15;;
72085;SDS011;64750;52.134;5.424;2023-02-15T03:20:08;24.27;;;12.27;;
72085;SDS011;64750;52.134;5.424;2023-02-15T03:22:41;18.77;;;13.07;;
72085;SDS011;64750;52.134;5.424;2023-02-15T03:25:20;18.25;;;12.63;;
72085;SDS011;64750;52.134;5.424;2023-02-15T03:27:52;20.80;;;12.35;;
72085;SDS011;64750;52.134;5.424;2023-02-15T03:30:21;19.88;;;12.55;;
72085;SDS011;64750;52.134;5.424;2023-02-15T03:32:49;22.70;;;13.03;;
72085;SDS011;64750;52.134;5.424;2023-02-15T03:35:18;21.85;;;13.60;;
72085;SDS011;64750;52.134;5.424;2023-02-15T03:38:00;19.08;;;13.18;;
72085;SDS011;64750;52.134;5.424;2023-02-15T03:40:28;20.55;;;12.77;;
72085;SDS011;64750;52.134;5.424;2023-02-15T03:46:11;19.87;;;12.33;;
72085;SDS011;64750;52.134;5.424;2023-02-15T03:48:48;19.50;;;12.60;;
72085;SDS011;64750;52.134;5.424;2023-02-15T03:51:19;21.58;;;13.18;;
72085;SDS011;64750;52.134;5.424;2023-02-15T03:54:22;23.08;;;13.98;;
72085;SDS011;64750;52.134;5.424;2023-02-15T03:57:12;23.05;;;14.07;;
72085;SDS011;64750;52.134;5.424;2023-02-15T03:59:59;21.43;;;12.83;;
72085;SDS011;64750;52.134;5.424;2023-02-15T04:03:07;21.50;;;13.70;;
72085;SDS011;64750;52.134;5.424;2023-02-15T04:05:35;23.27;;;14.55;;
72085;SDS011;64750;52.134;5.424;2023-02-15T04:08:02;19.90;;;13.70;;
72085;SDS011;64750;52.134;5.424;2023-02-15T04:10:29;20.83;;;14.00;;
72085;SDS011;64750;52.134;5.424;2023-02-15T04:13:14;22.13;;;14.20;;
72085;SDS011;64750;52.134;5.424;2023-02-15T04:15:40;22.50;;;14.32;;
72085;SDS011;64750;52.134;5.424;2023-02-15T04:18:26;22.70;;;14.38;;
72085;SDS011;64750;52.134;5.424;2023-02-15T04:21:11;18.83;;;13.45;;
72085;SDS011;64750;52.134;5.424;2023-02-15T04:23:56;24.42;;;13.90;;
72085;SDS011;64750;52.134;5.424;2023-02-15T04:26:40;25.40;;;14.77;;
72085;SDS011;64750;52.134;5.424;2023-02-15T04:29:07;30.25;;;14.60;;
72085;SDS011;64750;52.134;5.424;2023-02-15T04:31:33;25.17;;;14.38;;
72085;SDS011;64750;52.134;5.424;2023-02-15T04:34:00;23.77;;;14.98;;
72085;SDS011;64750;52.134;5.424;2023-02-15T04:36:26;23.75;;;15.73;;
72085;SDS011;64750;52.134;5.424;2023-02-15T04:38:52;27.27;;;14.57;;
72085;SDS011;64750;52.134;5.424;2023-02-15T04:41:19;22.75;;;15.13;;
72085;SDS011;64750;52.134;5.424;2023-02-15T04:43:45;23.10;;;14.65;;
72085;SDS011;64750;52.134;5.424;2023-02-15T04:46:11;25.35;;;13.90;;
72085;SDS011;64750;52.134;5.424;2023-02-15T04:48:38;24.13;;;15.40;;
72085;SDS011;64750;52.134;5.424;2023-02-15T04:51:05;26.17;;;15.00;;
72085;SDS011;64750;52.134;5.424;2023-02-15T04:53:33;22.80;;;14.57;;
72085;SDS011;64750;52.134;5.424;2023-02-15T04:56:00;22.83;;;14.57;;
72085;SDS011;64750;52.134;5.424;2023-02-15T04:58:26;23.48;;;15.13;;
72085;SDS011;64750;52.134;5.424;2023-02-15T05:00:56;23.48;;;14.55;;
72085;SDS011;64750;52.134;5.424;2023-02-15T05:03:23;23.53;;;13.47;;
72085;SDS011;64750;52.134;5.424;2023-02-15T05:05:50;21.58;;;13.70;;
72085;SDS011;64750;52.134;5.424;2023-02-15T05:08:17;23.08;;;14.23;;
72085;SDS011;64750;52.134;5.424;2023-02-15T05:10:43;20.65;;;14.50;;
72085;SDS011;64750;52.134;5.424;2023-02-15T05:13:09;22.83;;;14.30;;
72085;SDS011;64750;52.134;5.424;2023-02-15T05:15:36;22.33;;;13.57;;
72085;SDS011;64750;52.134;5.424;2023-02-15T05:18:02;29.23;;;14.00;;
72085;SDS011;64750;52.134;5.424;2023-02-15T05:20:29;20.42;;;14.07;;
72085;SDS011;64750;52.134;5.424;2023-02-15T05:22:55;23.05;;;13.77;;
72085;SDS011;64750;52.134;5.424;2023-02-15T05:25:21;23.80;;;14.30;;
72085;SDS011;64750;52.134;5.424;2023-02-15T05:28:08;24.13;;;14.07;;
72085;SDS011;64750;52.134;5.424;2023-02-15T05:30:49;22.60;;;13.20;;
72085;SDS011;64750;52.134;5.424;2023-02-15T05:33:17;23.25;;;13.68;;
72085;SDS011;64750;52.134;5.424;2023-02-15T05:35:43;21.35;;;14.00;;
72085;SDS011;64750;52.134;5.424;2023-02-15T05:38:10;18.08;;;13.27;;
72085;SDS011;64750;52.134;5.424;2023-02-15T05:40:36;20.30;;;13.77;;
72085;SDS011;64750;52.134;5.424;2023-02-15T05:43:02;23.70;;;13.68;;
72085;SDS011;64750;52.134;5.424;2023-02-15T05:45:29;24.17;;;14.23;;
72085;SDS011;64750;52.134;5.424;2023-02-15T05:47:55;23.85;;;13.20;;
72085;SDS011;64750;52.134;5.424;2023-02-15T05:50:24;24.50;;;14.35;;
72085;SDS011;64750;52.134;5.424;2023-02-15T05:52:51;22.00;;;14.87;;
72085;SDS011;64750;52.134;5.424;2023-02-15T05:55:18;26.88;;;15.00;;
72085;SDS011;64750;52.134;5.424;2023-02-15T05:57:44;26.05;;;16.33;;
72085;SDS011;64750;52.134;5.424;2023-02-15T06:00:11;29.50;;;18.73;;
72085;SDS011;64750;52.134;5.424;2023-02-15T06:02:39;34.40;;;19.23;;
72085;SDS011;64750;52.134;5.424;2023-02-15T06:05:06;31.67;;;17.83;;
72085;SDS011;64750;52.134;5.424;2023-02-15T06:07:33;24.98;;;14.10;;
72085;SDS011;64750;52.134;5.424;2023-02-15T06:10:00;25.70;;;15.32;;
72085;SDS011;64750;52.134;5.424;2023-02-15T06:12:26;21.42;;;13.32;;
72085;SDS011;64750;52.134;5.424;2023-02-15T06:14:52;21.92;;;13.80;;
72085;SDS011;64750;52.134;5.424;2023-02-15T06:17:19;21.53;;;14.10;;
72085;SDS011;64750;52.134;5.424;2023-02-15T06:19:45;22.23;;;12.85;;
72085;SDS011;64750;52.134;5.424;2023-02-15T06:22:11;22.55;;;12.65;;
72085;SDS011;64750;52.134;5.424;2023-02-15T06:24:40;22.27;;;13.35;;
72085;SDS011;64750;52.134;5.424;2023-02-15T06:27:09;17.02;;;12.60;;
72085;SDS011;64750;52.134;5.424;2023-02-15T06:29:36;22.30;;;12.77;;
72085;SDS011;64750;52.134;5.424;2023-02-15T06:32:02;19.38;;;12.75;;
72085;SDS011;64750;52.134;5.424;2023-02-15T06:34:29;20.80;;;12.80;;
72085;SDS011;64750;52.134;5.424;2023-02-15T06:36:55;24.50;;;13.27;;
72085;SDS011;64750;52.134;5.424;2023-02-15T06:39:22;20.30;;;12.70;;
72085;SDS011;64750;52.134;5.424;2023-02-15T06:41:48;19.07;;;12.53;;
72085;SDS011;64750;52.134;5.424;2023-02-15T06:44:15;21.55;;;13.80;;
72085;SDS011;64750;52.134;5.424;2023-02-15T06:46:41;20.15;;;13.23;;
72085;SDS011;64750;52.134;5.424;2023-02-15T06:49:08;18.75;;;12.55;;
72085;SDS011;64750;52.134;5.424;2023-02-15T06:51:34;24.58;;;13.75;;
72085;SDS011;64750;52.134;5.424;2023-02-15T06:54:00;23.20;;;13.40;;
72085;SDS011;64750;52.134;5.424;2023-02-15T06:56:27;19.30;;;12.75;;
72085;SDS011;64750;52.134;5.424;2023-02-15T06:58:53;19.98;;;13.05;;
72085;SDS011;64750;52.134;5.424;2023-02-15T07:01:20;23.13;;;12.57;;
72085;SDS011;64750;52.134;5.424;2023-02-15T07:03:46;22.98;;;13.45;;
72085;SDS011;64750;52.134;5.424;2023-02-15T07:06:12;24.80;;;13.70;;
72085;SDS011;64750;52.134;5.424;2023-02-15T07:08:39;21.63;;;12.55;;
72085;SDS011;64750;52.134;5.424;2023-02-15T07:11:06;19.73;;;12.25;;
72085;SDS011;64750;52.134;5.424;2023-02-15T07:13:51;21.48;;;13.38;;
72085;SDS011;64750;52.134;5.424;2023-02-15T07:16:20;17.20;;;12.07;;
72085;SDS011;64750;52.134;5.424;2023-02-15T07:18:47;21.10;;;13.07;;
72085;SDS011;64750;52.134;5.424;2023-02-15T07:21:13;19.75;;;12.88;;
72085;SDS011;64750;52.134;5.424;2023-02-15T07:23:40;21.08;;;13.20;;
72085;SDS011;64750;52.134;5.424;2023-02-15T07:26:06;27.13;;;13.27;;
72085;SDS011;64750;52.134;5.424;2023-02-15T07:28:34;23.58;;;12.57;;
72085;SDS011;64750;52.134;5.424;2023-02-15T07:31:01;22.57;;;13.00;;
72085;SDS011;64750;52.134;5.424;2023-02-15T07:33:32;18.20;;;12.10;;
72085;SDS011;64750;52.134;5.424;2023-02-15T07:36:00;20.33;;;12.85;;
72085;SDS011;64750;52.134;5.424;2023-02-15T07:38:32;22.80;;;12.80;;
72085;SDS011;64750;52.134;5.424;2023-02-15T07:41:01;22.98;;;13.35;;
72085;SDS011;64750;52.134;5.424;2023-02-15T07:43:28;20.23;;;13.10;;
72085;SDS011;64750;52.134;5.424;2023-02-15T07:45:59;22.17;;;13.73;;
72085;SDS011;64750;52.134;5.424;2023-02-15T07:48:27;22.48;;;13.98;;
72085;SDS011;64750;52.134;5.424;2023-02-15T07:50:53;17.10;;;11.88;;
72085;SDS011;64750;52.134;5.424;2023-02-15T07:53:20;21.40;;;13.73;;
72085;SDS011;64750;52.134;5.424;2023-02-15T07:55:46;24.67;;;13.93;;
72085;SDS011;64750;52.134;5.424;2023-02-15T07:58:13;25.50;;;14.35;;
72085;SDS011;64750;52.134;5.424;2023-02-15T08:00:39;26.48;;;14.27;;
72085;SDS011;64750;52.134;5.424;2023-02-15T08:03:24;23.27;;;13.75;;
72085;SDS011;64750;52.134;5.424;2023-02-15T08:05:56;23.35;;;13.63;;
72085;SDS011;64750;52.134;5.424;2023-02-15T08:08:25;19.40;;;13.10;;
72085;SDS011;64750;52.134;5.424;2023-02-15T08:11:00;21.60;;;13.07;;
72085;SDS011;64750;52.134;5.424;2023-02-15T08:13:47;23.55;;;13.68;;
72085;SDS011;64750;52.134;5.424;2023-02-15T08:18:56;22.10;;;13.85;;
72085;SDS011;64750;52.134;5.424;2023-02-15T08:21:24;27.40;;;13.83;;
72085;SDS011;64750;52.134;5.424;2023-02-15T08:23:53;20.90;;;13.93;;
72085;SDS011;64750;52.134;5.424;2023-02-15T08:26:21;23.60;;;13.60;;
72085;SDS011;64750;52.134;5.424;2023-02-15T08:28:48;26.58;;;13.77;;
72085;SDS011;64750;52.134;5.424;2023-02-15T08:31:15;24.90;;;14.30;;
72085;SDS011;64750;52.134;5.424;2023-02-15T08:33:42;26.37;;;14.40;;
72085;SDS011;64750;52.134;5.424;2023-02-15T08:36:14;24.65;;;14.80;;
72085;SDS011;64750;52.134;5.424;2023-02-15T08:38:42;23.70;;;14.52;;
72085;SDS011;64750;52.134;5.424;2023-02-15T08:41:18;21.35;;;14.02;;
72085;SDS011;64750;52.134;5.424;2023-02-15T08:43:51;27.65;;;15.73;;
72085;SDS011;64750;52.134;5.424;2023-02-15T08:46:20;21.67;;;14.23;;
72085;SDS011;64750;52.134;5.424;2023-02-15T08:48:48;27.38;;;16.15;;
72085;SDS011;64750;52.134;5.424;2023-02-15T08:51:15;24.15;;;14.90;;
72085;SDS011;64750;52.134;5.424;2023-02-15T08:53:47;29.25;;;15.20;;
72085;SDS011;64750;52.134;5.424;2023-02-15T08:56:15;27.77;;;15.45;;
72085;SDS011;64750;52.134;5.424;2023-02-15T08:58:43;29.93;;;16.77;;
72085;SDS011;64750;52.134;5.424;2023-02-15T09:01:10;30.77;;;15.93;;
72085;SDS011;64750;52.134;5.424;2023-02-15T09:03:38;29.75;;;16.25;;
72085;SDS011;64750;52.134;5.424;2023-02-15T09:06:05;32.25;;;16.48;;
72085;SDS011;64750;52.134;5.424;2023-02-15T09:08:32;27.58;;;16.20;;
72085;SDS011;64750;52.134;5.424;2023-02-15T09:11:06;28.77;;;15.17;;
72085;SDS011;64750;52.134;5.424;2023-02-15T09:13:37;26.15;;;15.40;;
72085;SDS011;64750;52.134;5.424;2023-02-15T09:16:05;27.08;;;16.13;;
72085;SDS011;64750;52.134;5.424;2023-02-15T09:18:35;32.25;;;16.40;;
72085;SDS011;64750;52.134;5.424;2023-02-15T09:21:07;28.98;;;16.20;;
72085;SDS011;64750;52.134;5.424;2023-02-15T09:23:35;30.67;;;17.60;;
72085;SDS011;64750;52.134;5.424;2023-02-15T09:26:02;34.00;;;19.27;;
72085;SDS011;64750;52.134;5.424;2023-02-15T09:28:30;32.97;;;17.77;;
72085;SDS011;64750;52.134;5.424;2023-02-15T09:31:32;29.00;;;17.83;;
72085;SDS011;64750;52.134;5.424;2023-02-15T09:33:52;31.73;;;17.90;;
72085;SDS011;64750;52.134;5.424;2023-02-15T09:36:23;34.03;;;18.43;;
72085;SDS011;64750;52.134;5.424;2023-02-15T09:38:54;29.92;;;17.67;;
72085;SDS011;64750;52.134;5.424;2023-02-15T09:41:28;29.95;;;18.85;;
72085;SDS011;64750;52.134;5.424;2023-02-15T09:47:01;33.03;;;18.95;;
72085;SDS011;64750;52.134;5.424;2023-02-15T09:52:34;30.05;;;17.65;;
72085;SDS011;64750;52.134;5.424;2023-02-15T10:01:04;36.42;;;18.27;;
72085;SDS011;64750;52.134;5.424;2023-02-15T10:06:38;32.17;;;17.98;;
72085;SDS011;64750;52.134;5.424;2023-02-15T10:17:04;37.20;;;18.30;;
72085;SDS011;64750;52.134;5.424;2023-02-15T10:27:27;36.13;;;20.10;;
72085;SDS011;64750;52.134;5.424;2023-02-15T10:30:08;33.10;;;18.23;;
72085;SDS011;64750;52.134;5.424;2023-02-15T10:32:59;33.75;;;18.33;;
72085;SDS011;64750;52.134;5.424;2023-02-15T10:35:32;34.25;;;19.10;;
72085;SDS011;64750;52.134;5.424;2023-02-15T10:41:38;30.60;;;18.13;;
72085;SDS011;64750;52.134;5.424;2023-02-15T10:44:28;31.90;;;18.83;;
72085;SDS011;64750;52.134;5.424;2023-02-15T10:50:24;34.67;;;17.67;;
72085;SDS011;64750;52.134;5.424;2023-02-15T10:52:59;32.45;;;18.67;;
72085;SDS011;64750;52.134;5.424;2023-02-15T10:55:46;37.35;;;18.45;;
72085;SDS011;64750;52.134;5.424;2023-02-15T10:58:38;29.60;;;18.70;;
72085;SDS011;64750;52.134;5.424;2023-02-15T11:06:39;40.40;;;19.70;;
72085;SDS011;64750;52.134;5.424;2023-02-15T11:09:14;30.05;;;18.27;;
72085;SDS011;64750;52.134;5.424;2023-02-15T11:11:45;36.90;;;19.93;;
72085;SDS011;64750;52.134;5.424;2023-02-15T11:14:35;36.47;;;19.20;;
72085;SDS011;64750;52.134;5.424;2023-02-15T11:17:08;32.05;;;18.00;;
72085;SDS011;64750;52.134;5.424;2023-02-15T11:19:42;38.25;;;20.70;;
72085;SDS011;64750;52.134;5.424;2023-02-15T11:22:21;35.72;;;18.95;;
72085;SDS011;64750;52.134;5.424;2023-02-15T11:24:48;32.43;;;17.67;;
72085;SDS011;64750;52.134;5.424;2023-02-15T11:27:17;37.85;;;19.35;;
72085;SDS011;64750;52.134;5.424;2023-02-15T11:29:57;38.00;;;18.80;;
72085;SDS011;64750;52.134;5.424;2023-02-15T11:32:33;36.35;;;19.10;;
72085;SDS011;64750;52.134;5.424;2023-02-15T11:40:20;38.72;;;18.73;;
72085;SDS011;64750;52.134;5.424;2023-02-15T11:42:51;32.95;;;18.67;;
72085;SDS011;64750;52.134;5.424;2023-02-15T11:45:26;35.88;;;19.60;;
72085;SDS011;64750;52.134;5.424;2023-02-15T11:47:55;31.90;;;18.90;;
72085;SDS011;64750;52.134;5.424;2023-02-15T11:50:23;34.03;;;19.63;;
72085;SDS011;64750;52.134;5.424;2023-02-15T11:52:56;34.83;;;19.00;;
72085;SDS011;64750;52.134;5.424;2023-02-15T11:55:26;33.15;;;19.00;;
72085;SDS011;64750;52.134;5.424;2023-02-15T11:58:03;38.13;;;20.27;;
72085;SDS011;64750;52.134;5.424;2023-02-15T12:00:39;30.90;;;18.17;;
72085;SDS011;64750;52.134;5.424;2023-02-15T12:03:13;33.17;;;19.17;;
72085;SDS011;64750;52.134;5.424;2023-02-15T12:05:49;34.50;;;18.95;;
72085;SDS011;64750;52.134;5.424;2023-02-15T12:08:22;36.75;;;19.85;;
72085;SDS011;64750;52.134;5.424;2023-02-15T12:10:57;31.45;;;18.73;;
72085;SDS011;64750;52.134;5.424;2023-02-15T12:13:29;34.33;;;19.00;;
72085;SDS011;64750;52.134;5.424;2023-02-15T12:15:56;37.93;;;20.87;;
72085;SDS011;64750;52.134;5.424;2023-02-15T12:20:51;34.50;;;19.25;;
72085;SDS011;64750;52.134;5.424;2023-02-15T12:23:18;35.95;;;19.70;;
72085;SDS011;64750;52.134;5.424;2023-02-15T12:25:52;32.90;;;18.25;;
72085;SDS011;64750;52.134;5.424;2023-02-15T12:28:30;32.33;;;17.87;;
72085;SDS011;64750;52.134;5.424;2023-02-15T12:30:59;32.65;;;19.20;;
72085;SDS011;64750;52.134;5.424;2023-02-15T12:33:30;37.40;;;21.00;;
72085;SDS011;64750;52.134;5.424;2023-02-15T12:36:02;38.88;;;19.90;;
72085;SDS011;64750;52.134;5.424;2023-02-15T12:38:36;37.17;;;19.75;;
72085;SDS011;64750;52.134;5.424;2023-02-15T12:41:22;38.00;;;21.00;;
72085;SDS011;64750;52.134;5.424;2023-02-15T12:44:04;34.63;;;19.25;;
72085;SDS011;64750;52.134;5.424;2023-02-15T12:49:41;33.53;;;19.23;;
72085;SDS011;64750;52.134;5.424;2023-02-15T12:54:48;34.60;;;19.10;;
72085;SDS011;64750;52.134;5.424;2023-02-15T12:57:28;38.17;;;22.17;;
72085;SDS011;64750;52.134;5.424;2023-02-15T13:00:04;37.58;;;20.92;;
72085;SDS011;64750;52.134;5.424;2023-02-15T13:02:54;38.58;;;19.30;;
72085;SDS011;64750;52.134;5.424;2023-02-15T13:05:31;37.10;;;20.67;;
72085;SDS011;64750;52.134;5.424;2023-02-15T13:08:14;37.77;;;21.03;;
72085;SDS011;64750;52.134;5.424;2023-02-15T13:10:52;35.67;;;20.08;;
72085;SDS011;64750;52.134;5.424;2023-02-15T13:13:30;32.63;;;20.70;;
72085;SDS011;64750;52.134;5.424;2023-02-15T13:16:03;34.55;;;20.77;;
72085;SDS011;64750;52.134;5.424;2023-02-15T13:18:35;36.28;;;21.13;;
72085;SDS011;64750;52.134;5.424;2023-02-15T13:21:06;40.20;;;20.53;;
72085;SDS011;64750;52.134;5.424;2023-02-15T13:23:39;38.25;;;21.05;;
72085;SDS011;64750;52.134;5.424;2023-02-15T13:26:14;35.33;;;20.70;;
72085;SDS011;64750;52.134;5.424;2023-02-15T13:28:54;34.75;;;20.88;;
72085;SDS011;64750;52.134;5.424;2023-02-15T13:31:24;34.30;;;20.35;;
72085;SDS011;64750;52.134;5.424;2023-02-15T13:33:55;39.50;;;20.90;;
72085;SDS011;64750;52.134;5.424;2023-02-15T13:52:30;36.03;;;20.65;;
72085;SDS011;64750;52.134;5.424;2023-02-15T13:55:26;34.78;;;20.88;;
72085;SDS011;64750;52.134;5.424;2023-02-15T14:08:39;39.40;;;20.27;;
72085;SDS011;64750;52.134;5.424;2023-02-15T14:11:37;36.90;;;21.42;;
72085;SDS011;64750;52.134;5.424;2023-02-15T14:14:23;37.60;;;21.03;;
72085;SDS011;64750;52.134;5.424;2023-02-15T14:17:15;36.22;;;20.88;;
72085;SDS011;64750;52.134;5.424;2023-02-15T14:22:23;37.65;;;22.25;;
72085;SDS011;64750;52.134;5.424;2023-02-15T14:30:26;35.20;;;21.42;;
72085;SDS011;64750;52.134;5.424;2023-02-15T14:33:10;33.72;;;21.15;;
72085;SDS011;64750;52.134;5.424;2023-02-15T14:35:42;34.28;;;20.90;;
72085;SDS011;64750;52.134;5.424;2023-02-15T14:40:46;40.37;;;20.57;;
72085;SDS011;64750;52.134;5.424;2023-02-15T14:48:58;37.65;;;20.58;;
72085;SDS011;64750;52.134;5.424;2023-02-15T14:54:52;40.07;;;22.10;;
72085;SDS011;64750;52.134;5.424;2023-02-15T15:02:12;38.90;;;22.55;;
72085;SDS011;64750;52.134;5.424;2023-02-15T15:04:42;43.45;;;23.17;;
72085;SDS011;64750;52.134;5.424;2023-02-15T15:09:41;41.08;;;23.08;;
72085;SDS011;64750;52.134;5.424;2023-02-15T15:12:51;40.15;;;21.92;;
72085;SDS011;64750;52.134;5.424;2023-02-15T15:14:58;37.83;;;20.83;;
72085;SDS011;64750;52.134;5.424;2023-02-15T15:19:58;38.90;;;22.43;;
72085;SDS011;64750;52.134;5.424;2023-02-15T15:22:25;36.28;;;20.70;;
72085;SDS011;64750;52.134;5.424;2023-02-15T15:32:49;39.97;;;21.30;;
72085;SDS011;64750;52.134;5.424;2023-02-15T15:35:35;37.30;;;21.42;;
72085;SDS011;64750;52.134;5.424;2023-02-15T15:41:19;38.20;;;20.60;;
72085;SDS011;64750;52.134;5.424;2023-02-15T15:46:49;36.67;;;21.73;;
72085;SDS011;64750;52.134;5.424;2023-02-15T15:49:21;33.67;;;19.95;;
72085;SDS011;64750;52.134;5.424;2023-02-15T15:51:50;38.58;;;20.73;;
72085;SDS011;64750;52.134;5.424;2023-02-15T15:54:18;35.58;;;20.30;;
72085;SDS011;64750;52.134;5.424;2023-02-15T15:56:51;37.60;;;20.38;;
72085;SDS011;64750;52.134;5.424;2023-02-15T15:59:23;43.13;;;21.20;;
72085;SDS011;64750;52.134;5.424;2023-02-15T16:01:51;41.15;;;22.23;;
72085;SDS011;64750;52.134;5.424;2023-02-15T16:04:23;39.80;;;21.67;;
72085;SDS011;64750;52.134;5.424;2023-02-15T16:06:52;38.20;;;21.42;;
72085;SDS011;64750;52.134;5.424;2023-02-15T16:11:51;33.37;;;20.33;;
72085;SDS011;64750;52.134;5.424;2023-02-15T16:14:38;37.80;;;20.67;;
72085;SDS011;64750;52.134;5.424;2023-02-15T16:17:20;30.98;;;19.98;;
72085;SDS011;64750;52.134;5.424;2023-02-15T16:19:50;36.17;;;20.48;;
72085;SDS011;64750;52.134;5.424;2023-02-15T16:22:19;38.40;;;21.92;;
72085;SDS011;64750;52.134;5.424;2023-02-15T16:27:43;38.40;;;20.70;;
72085;SDS011;64750;52.134;5.424;2023-02-15T16:32:43;35.97;;;21.73;;
72085;SDS011;64750;52.134;5.424;2023-02-15T16:35:13;38.40;;;21.55;;
72085;SDS011;64750;52.134;5.424;2023-02-15T16:37:41;39.30;;;20.67;;
72085;SDS011;64750;52.134;5.424;2023-02-15T16:40:27;37.72;;;20.73;;
72085;SDS011;64750;52.134;5.424;2023-02-15T16:43:02;50.63;;;27.02;;
72085;SDS011;64750;52.134;5.424;2023-02-15T16:45:33;50.30;;;26.33;;
72085;SDS011;64750;52.134;5.424;2023-02-15T16:48:04;38.50;;;22.38;;
72085;SDS011;64750;52.134;5.424;2023-02-15T16:50:38;40.20;;;24.20;;
72085;SDS011;64750;52.134;5.424;2023-02-15T16:53:05;42.58;;;25.83;;
72085;SDS011;64750;52.134;5.424;2023-02-15T16:55:41;45.72;;;26.55;;
72085;SDS011;64750;52.134;5.424;2023-02-15T16:58:12;44.22;;;27.67;;
72085;SDS011;64750;52.134;5.424;2023-02-15T17:00:42;45.83;;;27.35;;
72085;SDS011;64750;52.134;5.424;2023-02-15T17:05:48;47.53;;;27.73;;
72085;SDS011;64750;52.134;5.424;2023-02-15T17:08:18;51.15;;;26.92;;
72085;SDS011;64750;52.134;5.424;2023-02-15T17:11:16;41.55;;;24.10;;
72085;SDS011;64750;52.134;5.424;2023-02-15T17:16:52;37.97;;;23.97;;
72085;SDS011;64750;52.134;5.424;2023-02-15T17:22:03;47.70;;;26.27;;
72085;SDS011;64750;52.134;5.424;2023-02-15T17:24:37;47.97;;;25.25;;
72085;SDS011;64750;52.134;5.424;2023-02-15T17:27:06;46.88;;;25.50;;
72085;SDS011;64750;52.134;5.424;2023-02-15T17:29:41;44.03;;;24.77;;
72085;SDS011;64750;52.134;5.424;2023-02-15T17:32:17;43.35;;;24.23;;
72085;SDS011;64750;52.134;5.424;2023-02-15T17:34:48;42.60;;;23.70;;
72085;SDS011;64750;52.134;5.424;2023-02-15T17:37:24;44.53;;;23.67;;
72085;SDS011;64750;52.134;5.424;2023-02-15T17:39:51;39.03;;;24.10;;